Shelby Township, Michigan
Current Conditions -  °F | °C
As of 3:35 AM on Thursday 18 Dec 2014 (Local Time) from KVLL Reporting Station
Overcast Overcast  
Wind Chill: 23°   Ceiling: 1800
Heat Index: 31°   Visibility: 10mi
Dew Point: 24°   Wind: 9mph
Humidity: 74%   Direction: 280°W
Pressure: 30.18"   Gusts: NA
Location:  42.6906°N, 83.0569°W
Report Text: KVLL 180835Z AUTO 28008KT 10SM OVC018 00/M04 A3018 RMK AO2 T10031045
Loading
Personal Weather Stations






























Interactive Weather Map New forecast layout! Learn more

10-Day Weather Forecast

Advertisements
Track Severe Weather on mobile